Time;durP1;ratioP1;P1;durP2;ratioP2;P2;SDS_P1;SDS_P2;PMS_P1;PMS_P2;Temp;Humidity;BMP_temperature;BMP_pressure;BME280_temperature;BME280_humidity;BME280_pressure;Samples;Min_cycle;Max_cycle;Signal;HPM_P1;HPM_P2
2021/07/22 00:02:07;;;;;;;;;;;14.10;78.20;;;;;;4960840;28;95026;-45
2021/07/22 00:04:38;;;;;;;;;;;14.20;77.60;;;;;;4980779;28;95175;-46
2021/07/22 00:07:08;;;;;;;;;;;14.30;77.90;;;;;;4980035;28;96123;-46
2021/07/22 00:09:39;;;;;;;;;;;14.40;77.90;;;;;;4979757;28;95695;-45
2021/07/22 00:12:14;;;;;;;;;;;14.60;78.00;;;;;;4961445;28;95087;-46
2021/07/22 00:14:48;;;;;;;;;;;14.70;78.10;;;;;;4979173;28;95251;-46
2021/07/22 00:17:24;;;;;;;;;;;14.80;78.00;;;;;;4978567;28;96375;-46
2021/07/22 00:19:57;;;;;;;;;;;14.90;77.80;;;;;;4979499;28;95392;-46
2021/07/22 00:22:28;;;;;;;;;;;15.00;77.60;;;;;;4979411;28;95057;-46
2021/07/22 00:25:01;;;;;;;;;;;15.00;77.10;;;;;;4980120;28;95322;-46
2021/07/22 00:27:32;;;;;;;;;;;15.10;76.80;;;;;;4979331;28;96449;-45
2021/07/22 00:30:03;;;;;;;;;;;15.10;76.90;;;;;;4979534;28;94976;-47
2021/07/22 00:32:36;;;;;;;;;;;15.20;77.10;;;;;;4978957;28;95392;-48
2021/07/22 00:35:09;;;;;;;;;;;15.20;77.10;;;;;;4979994;28;95156;-47
2021/07/22 00:37:42;;;;;;;;;;;15.30;77.60;;;;;;4978168;28;95902;-47
2021/07/22 00:40:15;;;;;;;;;;;15.30;77.40;;;;;;4978646;28;95728;-46
2021/07/22 00:42:57;;;;;;;;;;;15.30;77.30;;;;;;4979551;28;94989;-46
2021/07/22 00:45:31;;;;;;;;;;;15.40;77.20;;;;;;4978613;28;95167;-46
2021/07/22 00:48:03;;;;;;;;;;;15.40;77.00;;;;;;4978322;28;95987;-40
2021/07/22 00:50:35;;;;;;;;;;;15.40;76.80;;;;;;4978264;28;95616;-39
2021/07/22 00:53:07;;;;;;;;;;;15.50;76.60;;;;;;4983593;28;95025;-38
2021/07/22 00:55:38;;;;;;;;;;;15.60;76.40;;;;;;4984215;28;95247;-38
2021/07/22 00:58:10;;;;;;;;;;;15.60;76.30;;;;;;4983664;28;95870;-38
2021/07/22 01:00:43;;;;;;;;;;;15.70;76.40;;;;;;4981194;28;95499;-38
2021/07/22 01:03:15;;;;;;;;;;;15.70;76.30;;;;;;4982491;28;94990;-38
2021/07/22 01:05:51;;;;;;;;;;;15.70;76.30;;;;;;4981256;28;95410;-38
2021/07/22 01:08:22;;;;;;;;;;;15.80;76.20;;;;;;4982454;28;96659;-37
2021/07/22 01:11:13;;;;;;;;;;;15.90;76.20;;;;;;4967722;28;95367;-40
2021/07/22 01:13:45;;;;;;;;;;;15.90;76.20;;;;;;4981842;28;95014;-41
2021/07/22 01:16:18;;;;;;;;;;;16.00;76.20;;;;;;4979982;28;95563;-38
2021/07/22 01:18:50;;;;;;;;;;;16.00;75.90;;;;;;4982204;28;95811;-38
2021/07/22 01:21:24;;;;;;;;;;;15.90;74.10;;;;;;4981863;28;95432;-36
2021/07/22 01:23:56;;;;;;;;;;;15.90;74.40;;;;;;4982389;28;95037;-45
2021/07/22 01:26:36;;;;;;;;;;;15.80;74.20;;;;;;4979737;28;95275;-46
2021/07/22 01:29:22;;;;;;;;;;;15.80;74.20;;;;;;4981773;28;96031;-46
2021/07/22 01:31:53;;;;;;;;;;;15.80;74.20;;;;;;4976090;28;96533;-46
2021/07/22 01:34:27;;;;;;;;;;;15.90;74.10;;;;;;4982404;28;95026;-46
2021/07/22 01:37:00;;;;;;;;;;;16.00;73.90;;;;;;4982381;28;95289;-45
2021/07/22 01:39:34;;;;;;;;;;;16.10;74.50;;;;;;4982077;28;96501;-45
2021/07/22 01:42:09;;;;;;;;;;;16.10;73.70;;;;;;4981650;28;96076;-43
2021/07/22 01:44:43;;;;;;;;;;;16.20;73.60;;;;;;4964085;28;95209;-45
2021/07/22 01:47:14;;;;;;;;;;;16.20;73.20;;;;;;4980977;28;95271;-46
2021/07/22 01:49:48;;;;;;;;;;;16.20;73.20;;;;;;4981770;28;96471;-46
2021/07/22 01:52:22;;;;;;;;;;;16.20;73.00;;;;;;4982270;28;95550;-43
2021/07/22 01:54:53;;;;;;;;;;;16.30;73.20;;;;;;4982270;28;95073;-44
2021/07/22 01:57:25;;;;;;;;;;;16.30;73.00;;;;;;4982731;28;95309;-46
2021/07/22 02:00:04;;;;;;;;;;;16.40;72.90;;;;;;4982028;28;96228;-44
2021/07/22 02:02:44;;;;;;;;;;;16.40;72.70;;;;;;4980561;28;102010;-47
2021/07/22 02:05:23;;;;;;;;;;;16.40;72.50;;;;;;4980684;28;95161;-46
2021/07/22 02:07:54;;;;;;;;;;;16.40;73.10;;;;;;4982414;28;95228;-46
2021/07/22 02:10:24;;;;;;;;;;;16.50;73.20;;;;;;4981447;28;95830;-46
2021/07/22 02:12:57;;;;;;;;;;;16.60;73.30;;;;;;4980591;28;95625;-46
2021/07/22 02:15:43;;;;;;;;;;;16.70;73.40;;;;;;4980751;28;95851;-45
2021/07/22 02:18:25;;;;;;;;;;;16.70;73.40;;;;;;4982013;28;95196;-46
2021/07/22 02:21:03;;;;;;;;;;;16.80;73.50;;;;;;4980793;28;95208;-47
2021/07/22 02:23:38;;;;;;;;;;;16.80;73.50;;;;;;4963312;28;96129;-46
2021/07/22 02:26:39;;;;;;;;;;;16.90;73.40;;;;;;4963088;28;95083;-46
2021/07/22 02:29:10;;;;;;;;;;;16.90;73.40;;;;;;4964002;28;95367;-46
2021/07/22 02:31:41;;;;;;;;;;;17.00;73.40;;;;;;4979420;28;96302;-46
2021/07/22 02:34:16;;;;;;;;;;;17.10;73.30;;;;;;4980696;28;95772;-47
2021/07/22 02:36:48;;;;;;;;;;;17.10;73.20;;;;;;4980926;28;94969;-46
2021/07/22 02:39:46;;;;;;;;;;;17.10;73.20;;;;;;4964106;28;95373;-46
2021/07/22 02:42:22;;;;;;;;;;;17.20;73.10;;;;;;4980733;28;96369;-46
2021/07/22 02:44:54;;;;;;;;;;;17.20;73.10;;;;;;4979340;28;95842;-46
2021/07/22 02:47:31;;;;;;;;;;;17.20;73.00;;;;;;4979679;28;94949;-46
2021/07/22 02:50:02;;;;;;;;;;;17.30;73.00;;;;;;4981532;28;95385;-46
2021/07/22 02:52:37;;;;;;;;;;;17.30;73.00;;;;;;4981648;28;96508;-45
2021/07/22 02:55:11;;;;;;;;;;;17.30;73.00;;;;;;4981288;28;95124;-44
2021/07/22 02:57:42;;;;;;;;;;;17.20;72.30;;;;;;4981556;28;95179;-43
2021/07/22 03:00:15;;;;;;;;;;;17.20;72.10;;;;;;4963995;28;95341;-44
2021/07/22 03:02:46;;;;;;;;;;;17.10;72.00;;;;;;4962052;28;96068;-44
2021/07/22 03:05:17;;;;;;;;;;;17.00;71.90;;;;;;4980499;28;95756;-43
2021/07/22 03:07:49;;;;;;;;;;;17.00;71.70;;;;;;4980946;28;95034;-44
2021/07/22 03:10:20;;;;;;;;;;;17.00;71.00;;;;;;4963364;28;95394;-46
2021/07/22 03:12:53;;;;;;;;;;;17.00;70.30;;;;;;4962755;28;95894;-44
2021/07/22 03:15:24;;;;;;;;;;;16.90;70.30;;;;;;4978882;28;95453;-43
2021/07/22 03:17:57;;;;;;;;;;;16.80;70.60;;;;;;4962441;28;95116;-43
2021/07/22 03:20:28;;;;;;;;;;;16.70;70.90;;;;;;4979398;28;95371;-44
2021/07/22 03:23:03;;;;;;;;;;;16.70;71.00;;;;;;4979909;28;96011;-43
2021/07/22 03:25:41;;;;;;;;;;;16.60;71.10;;;;;;4979773;28;95755;-41
2021/07/22 03:28:26;;;;;;;;;;;16.60;71.40;;;;;;4980174;28;94965;-40
2021/07/22 03:31:24;;;;;;;;;;;16.80;71.80;;;;;;4979443;28;95351;-40
2021/07/22 03:34:10;;;;;;;;;;;16.90;72.10;;;;;;4980358;28;96420;-40
2021/07/22 03:36:50;;;;;;;;;;;17.00;72.40;;;;;;4962430;28;95642;-41
2021/07/22 03:39:22;;;;;;;;;;;17.00;72.40;;;;;;4980357;28;94951;-41
2021/07/22 03:42:08;;;;;;;;;;;17.00;72.30;;;;;;4980316;28;95491;-41
2021/07/22 03:45:04;;;;;;;;;;;17.10;72.20;;;;;;4979938;28;95770;-40
2021/07/22 03:47:41;;;;;;;;;;;17.00;72.30;;;;;;4973282;28;104446;-41
2021/07/22 03:50:15;;;;;;;;;;;17.10;72.50;;;;;;4980628;28;95141;-46
2021/07/22 03:52:57;;;;;;;;;;;17.10;70.90;;;;;;4963504;28;95454;-47
2021/07/22 03:55:31;;;;;;;;;;;16.90;70.70;;;;;;4978850;28;96104;-39
2021/07/22 03:58:21;;;;;;;;;;;16.90;71.00;;;;;;4977584;28;95080;-40
2021/07/22 04:01:11;;;;;;;;;;;16.90;71.50;;;;;;4960883;28;95141;-41
2021/07/22 04:03:43;;;;;;;;;;;16.90;71.80;;;;;;4980493;28;95311;-40
2021/07/22 04:06:16;;;;;;;;;;;16.90;71.80;;;;;;4962058;28;96114;-41
2021/07/22 04:08:48;;;;;;;;;;;16.90;71.80;;;;;;4978323;28;95267;-41
2021/07/22 04:11:37;;;;;;;;;;;16.80;71.70;;;;;;4979966;28;94970;-41
2021/07/22 04:14:27;;;;;;;;;;;16.80;71.90;;;;;;4977275;28;94950;-41
2021/07/22 04:17:25;;;;;;;;;;;16.90;72.10;;;;;;4947228;28;95703;-41
2021/07/22 04:20:10;;;;;;;;;;;16.90;72.00;;;;;;4979584;28;95528;-41
2021/07/22 04:22:58;;;;;;;;;;;17.00;72.20;;;;;;4979345;28;95101;-40
2021/07/22 04:25:39;;;;;;;;;;;17.00;72.10;;;;;;4979522;28;95334;-41
2021/07/22 04:28:16;;;;;;;;;;;17.10;72.00;;;;;;4961608;28;96159;-40
2021/07/22 04:30:48;;;;;;;;;;;17.10;72.00;;;;;;4978055;28;95431;-41
2021/07/22 04:33:39;;;;;;;;;;;17.20;72.00;;;;;;4976557;28;94949;-41
2021/07/22 04:36:25;;;;;;;;;;;17.20;72.00;;;;;;4979567;28;95299;-41
2021/07/22 04:39:26;;;;;;;;;;;17.20;71.90;;;;;;4891150;28;96086;-41
2021/07/22 04:42:16;;;;;;;;;;;17.30;71.90;;;;;;4977546;28;95611;-45
2021/07/22 04:45:13;;;;;;;;;;;17.30;71.80;;;;;;4961286;28;95006;-41
2021/07/22 04:48:04;;;;;;;;;;;17.30;71.80;;;;;;4978393;28;95381;-41
2021/07/22 04:50:54;;;;;;;;;;;17.30;71.80;;;;;;4978808;28;95689;-41
2021/07/22 04:53:44;;;;;;;;;;;17.40;71.90;;;;;;4979911;28;95297;-41
2021/07/22 04:56:16;;;;;;;;;;;17.30;71.90;;;;;;4980312;28;95100;-41
2021/07/22 04:58:51;;;;;;;;;;;17.40;71.50;;;;;;4979892;28;95400;-41
2021/07/22 05:01:25;;;;;;;;;;;17.40;72.00;;;;;;4977849;28;96538;-47
2021/07/22 05:03:56;;;;;;;;;;;17.40;71.70;;;;;;4960944;28;95909;-47
2021/07/22 05:06:45;;;;;;;;;;;17.50;71.80;;;;;;4979331;28;94986;-46
2021/07/22 05:09:46;;;;;;;;;;;17.50;71.80;;;;;;4970579;28;94876;-45
2021/07/22 05:12:36;;;;;;;;;;;17.60;71.60;;;;;;4960303;28;96543;-45
2021/07/22 05:15:31;;;;;;;;;;;17.70;71.90;;;;;;4974979;28;96102;-46
2021/07/22 05:18:16;;;;;;;;;;;17.70;72.20;;;;;;4978879;28;95119;-44
2021/07/22 05:21:16;;;;;;;;;;;17.80;72.30;;;;;;4969815;28;94988;-46
2021/07/22 05:24:09;;;;;;;;;;;17.80;72.10;;;;;;4978531;28;95363;-47
2021/07/22 05:26:46;;;;;;;;;;;17.90;71.90;;;;;;4978308;28;95788;-45
2021/07/22 05:29:25;;;;;;;;;;;18.00;71.80;;;;;;4978687;28;94958;-45
2021/07/22 05:32:17;;;;;;;;;;;18.00;71.60;;;;;;4977224;28;95454;-46
2021/07/22 05:34:57;;;;;;;;;;;18.10;71.60;;;;;;4960789;28;96098;-46
2021/07/22 05:37:48;;;;;;;;;;;18.10;72.00;;;;;;4965337;28;95436;-47
2021/07/22 05:40:20;;;;;;;;;;;18.10;72.30;;;;;;4981958;28;95048;-38
2021/07/22 05:42:52;;;;;;;;;;;18.20;72.20;;;;;;4964545;28;95423;-39
2021/07/22 05:45:23;;;;;;;;;;;18.20;71.60;;;;;;4982087;28;95720;-39
2021/07/22 05:47:55;;;;;;;;;;;18.20;71.30;;;;;;4979392;28;103117;-38
2021/07/22 05:50:30;;;;;;;;;;;18.20;71.20;;;;;;4982465;28;95025;-39
2021/07/22 05:53:05;;;;;;;;;;;18.20;71.20;;;;;;4983384;28;95119;-37
2021/07/22 05:55:36;;;;;;;;;;;18.20;71.10;;;;;;4982536;28;95846;-38
2021/07/22 05:58:09;;;;;;;;;;;18.20;71.10;;;;;;4982411;28;95110;-39
2021/07/22 06:00:41;;;;;;;;;;;18.20;71.00;;;;;;4980505;28;94962;-46
2021/07/22 06:03:12;;;;;;;;;;;18.20;71.00;;;;;;4982199;28;95319;-47
2021/07/22 06:05:43;;;;;;;;;;;18.20;71.00;;;;;;4981551;28;96485;-39
2021/07/22 06:08:14;;;;;;;;;;;18.20;71.20;;;;;;4981536;28;95184;-40
2021/07/22 06:10:44;;;;;;;;;;;18.30;71.40;;;;;;4963832;28;95070;-41
2021/07/22 06:13:15;;;;;;;;;;;18.30;70.90;;;;;;4981515;28;95159;-41
2021/07/22 06:15:47;;;;;;;;;;;18.30;70.60;;;;;;4978881;28;96466;-41
2021/07/22 06:18:19;;;;;;;;;;;18.30;70.60;;;;;;4981352;28;95625;-40
2021/07/22 06:20:53;;;;;;;;;;;18.20;70.40;;;;;;4981399;28;94915;-41
2021/07/22 06:23:24;;;;;;;;;;;18.20;70.50;;;;;;4981630;28;95113;-41
2021/07/22 06:25:58;;;;;;;;;;;18.10;70.50;;;;;;4981188;28;95832;-40
2021/07/22 06:28:29;;;;;;;;;;;18.10;70.90;;;;;;4963278;28;95568;-43
2021/07/22 06:31:00;;;;;;;;;;;18.10;70.50;;;;;;4980207;28;95041;-38
2021/07/22 06:33:31;;;;;;;;;;;18.20;70.50;;;;;;4981853;28;95168;-38
2021/07/22 06:36:04;;;;;;;;;;;18.20;70.90;;;;;;4980775;28;96759;-46
2021/07/22 06:38:36;;;;;;;;;;;18.30;71.10;;;;;;4981037;28;95320;-49
2021/07/22 06:41:08;;;;;;;;;;;18.30;71.30;;;;;;4963616;28;95065;-46
2021/07/22 06:43:39;;;;;;;;;;;18.40;71.40;;;;;;4981617;28;95171;-48
2021/07/22 06:46:14;;;;;;;;;;;18.40;71.30;;;;;;4978752;28;96104;-47
2021/07/22 06:48:49;;;;;;;;;;;18.50;71.30;;;;;;4980117;28;95787;-46
2021/07/22 06:51:20;;;;;;;;;;;18.50;71.00;;;;;;4982414;28;95000;-46
2021/07/22 06:53:55;;;;;;;;;;;18.50;71.00;;;;;;4982289;28;95297;-39
2021/07/22 06:56:27;;;;;;;;;;;18.50;71.10;;;;;;4981182;28;95891;-38
2021/07/22 06:58:59;;;;;;;;;;;18.50;71.30;;;;;;4981231;28;95427;-38
2021/07/22 07:01:30;;;;;;;;;;;18.50;71.40;;;;;;4979661;28;95014;-39
2021/07/22 07:04:02;;;;;;;;;;;18.50;71.20;;;;;;4981280;28;95275;-40
2021/07/22 07:06:36;;;;;;;;;;;18.40;71.10;;;;;;4980124;28;96556;-41
2021/07/22 07:09:08;;;;;;;;;;;18.30;71.50;;;;;;4980986;28;95425;-46
2021/07/22 07:11:40;;;;;;;;;;;18.30;71.50;;;;;;4980762;28;94926;-47
2021/07/22 07:14:13;;;;;;;;;;;18.30;71.60;;;;;;4964009;28;95241;-47
2021/07/22 07:16:49;;;;;;;;;;;18.40;71.60;;;;;;4979337;28;95267;-46
2021/07/22 07:19:25;;;;;;;;;;;18.30;71.40;;;;;;4964041;28;95274;-46
2021/07/22 07:21:56;;;;;;;;;;;18.30;71.50;;;;;;4980938;28;94991;-46
2021/07/22 07:24:28;;;;;;;;;;;18.30;71.10;;;;;;4981054;28;95163;-46
2021/07/22 07:27:00;;;;;;;;;;;18.30;71.10;;;;;;4980248;28;96084;-47
2021/07/22 07:29:30;;;;;;;;;;;18.30;71.50;;;;;;4980236;28;95368;-46
2021/07/22 07:32:03;;;;;;;;;;;18.40;71.40;;;;;;4961032;28;95077;-44
2021/07/22 07:34:35;;;;;;;;;;;18.30;71.40;;;;;;4981066;28;95201;-46
2021/07/22 07:37:07;;;;;;;;;;;18.30;71.80;;;;;;4980216;28;96332;-46
2021/07/22 07:39:39;;;;;;;;;;;18.30;71.70;;;;;;4979873;28;95790;-38
2021/07/22 07:42:10;;;;;;;;;;;18.20;71.60;;;;;;4980568;28;94929;-38
2021/07/22 07:44:43;;;;;;;;;;;18.20;71.50;;;;;;4980774;28;94996;-42
2021/07/22 07:47:18;;;;;;;;;;;18.20;71.40;;;;;;4977364;28;96070;-39
2021/07/22 07:49:52;;;;;;;;;;;18.10;71.50;;;;;;4978980;28;95250;-47
2021/07/22 07:52:25;;;;;;;;;;;18.10;72.20;;;;;;4981345;28;94808;-47
2021/07/22 07:54:57;;;;;;;;;;;18.10;71.50;;;;;;4981241;28;95181;-47
2021/07/22 07:57:28;;;;;;;;;;;18.10;71.10;;;;;;4980966;28;95839;-46
2021/07/22 08:00:00;;;;;;;;;;;18.20;70.30;;;;;;4980001;28;95167;-47
2021/07/22 08:02:39;;;;;;;;;;;18.20;69.70;;;;;;4978921;28;95067;-47
2021/07/22 08:05:10;;;;;;;;;;;18.10;69.70;;;;;;4980691;28;95147;-46
2021/07/22 08:07:40;;;;;;;;;;;18.00;69.70;;;;;;4980102;28;95865;-47
2021/07/22 08:10:12;;;;;;;;;;;18.00;69.90;;;;;;4980085;28;95982;-47
2021/07/22 08:12:43;;;;;;;;;;;17.90;69.80;;;;;;4979437;28;94922;-47
2021/07/22 08:15:14;;;;;;;;;;;17.90;69.80;;;;;;4979744;28;95355;-47
2021/07/22 08:17:46;;;;;;;;;;;17.90;69.90;;;;;;4979070;28;102061;-47
2021/07/22 08:20:18;;;;;;;;;;;18.00;69.80;;;;;;4979935;28;95113;-47
2021/07/22 08:22:49;;;;;;;;;;;18.00;69.70;;;;;;4979652;28;95028;-47
2021/07/22 08:25:19;;;;;;;;;;;18.00;69.90;;;;;;4980022;28;95192;-47
2021/07/22 08:27:49;;;;;;;;;;;18.00;70.50;;;;;;4979430;28;95896;-47
2021/07/22 08:30:20;;;;;;;;;;;18.00;71.60;;;;;;4977747;28;96393;-47
2021/07/22 08:32:51;;;;;;;;;;;18.00;71.30;;;;;;4979808;28;94939;-47
2021/07/22 08:35:23;;;;;;;;;;;17.90;71.40;;;;;;4980148;28;95152;-47
2021/07/22 08:37:55;;;;;;;;;;;17.90;71.50;;;;;;4978992;28;96410;-47
2021/07/22 08:40:26;;;;;;;;;;;17.90;71.90;;;;;;4979546;28;95920;-46
2021/07/22 08:43:05;;;;;;;;;;;17.90;72.00;;;;;;4979473;28;94982;-47
2021/07/22 08:45:37;;;;;;;;;;;17.80;72.20;;;;;;4961296;28;95280;-47
2021/07/22 08:48:11;;;;;;;;;;;17.80;72.60;;;;;;4977659;28;95870;-46
2021/07/22 08:50:45;;;;;;;;;;;17.80;72.70;;;;;;4978870;28;95351;-47
2021/07/22 08:53:20;;;;;;;;;;;17.80;73.00;;;;;;4979501;28;95055;-47
2021/07/22 08:55:51;;;;;;;;;;;17.70;72.90;;;;;;4979648;28;95054;-47
2021/07/22 08:58:23;;;;;;;;;;;17.70;72.80;;;;;;4979391;28;95922;-46
2021/07/22 09:00:56;;;;;;;;;;;17.70;72.60;;;;;;4978117;28;95652;-47
2021/07/22 09:03:26;;;;;;;;;;;17.60;72.70;;;;;;4979477;28;94955;-47
2021/07/22 09:05:58;;;;;;;;;;;17.60;72.80;;;;;;4979411;28;95332;-46
2021/07/22 09:08:29;;;;;;;;;;;17.60;72.90;;;;;;4978689;28;96423;-47
2021/07/22 09:11:06;;;;;;;;;;;17.60;72.90;;;;;;4977862;28;95874;-47
2021/07/22 09:13:39;;;;;;;;;;;17.50;72.80;;;;;;4981843;28;94968;-47
2021/07/22 09:16:13;;;;;;;;;;;17.50;72.80;;;;;;4981602;28;95434;-47
2021/07/22 09:18:44;;;;;;;;;;;17.50;72.80;;;;;;4964725;28;94926;-46
2021/07/22 09:21:24;;;;;;;;;;;17.40;73.40;;;;;;4982070;28;95349;-47
2021/07/22 09:24:12;;;;;;;;;;;17.40;72.70;;;;;;4982457;28;95094;-47
2021/07/22 09:26:47;;;;;;;;;;;17.40;72.60;;;;;;4982949;28;95172;-47
2021/07/22 09:29:17;;;;;;;;;;;17.40;72.60;;;;;;4982192;28;96625;-47
2021/07/22 09:31:49;;;;;;;;;;;17.40;72.50;;;;;;4980598;28;95445;-47
2021/07/22 09:34:20;;;;;;;;;;;17.40;72.40;;;;;;4981991;28;95021;-46
2021/07/22 09:36:51;;;;;;;;;;;17.30;72.30;;;;;;4982751;28;95220;-47
2021/07/22 09:39:24;;;;;;;;;;;17.30;72.30;;;;;;4982224;28;95924;-47
2021/07/22 09:41:57;;;;;;;;;;;17.30;72.30;;;;;;4980886;28;95450;-47
2021/07/22 09:44:40;;;;;;;;;;;17.20;72.30;;;;;;4981751;28;95001;-47
2021/07/22 09:47:11;;;;;;;;;;;17.20;72.00;;;;;;4980731;28;95522;-46
2021/07/22 09:49:47;;;;;;;;;;;17.10;72.30;;;;;;4981718;28;96373;-47
2021/07/22 09:52:20;;;;;;;;;;;17.10;72.50;;;;;;4982316;28;96027;-47
2021/07/22 09:54:52;;;;;;;;;;;17.10;72.50;;;;;;4964755;28;94985;-47
2021/07/22 09:57:23;;;;;;;;;;;17.10;72.60;;;;;;4983434;28;95151;-47
2021/07/22 09:59:56;;;;;;;;;;;17.10;72.60;;;;;;4982328;28;96790;-47
2021/07/22 10:02:26;;;;;;;;;;;17.10;72.50;;;;;;4980298;28;95268;-47
2021/07/22 10:04:59;;;;;;;;;;;17.10;72.30;;;;;;4982105;28;95043;-47
2021/07/22 10:07:31;;;;;;;;;;;17.10;72.30;;;;;;4982730;28;95147;-47
2021/07/22 10:10:03;;;;;;;;;;;17.00;72.30;;;;;;4963953;28;96592;-47
2021/07/22 10:12:34;;;;;;;;;;;17.00;72.10;;;;;;4980766;28;95237;-47
2021/07/22 10:15:06;;;;;;;;;;;16.90;72.90;;;;;;4981489;28;95022;-47
2021/07/22 10:17:37;;;;;;;;;;;16.90;72.40;;;;;;4980590;28;95357;-47
2021/07/22 10:20:11;;;;;;;;;;;16.90;72.10;;;;;;4980136;28;95818;-46
2021/07/22 10:22:45;;;;;;;;;;;16.80;72.20;;;;;;4980818;28;95786;-47
2021/07/22 10:25:18;;;;;;;;;;;16.80;72.30;;;;;;4981591;28;95009;-40
2021/07/22 10:27:49;;;;;;;;;;;16.80;72.40;;;;;;4982216;28;95096;-41
2021/07/22 10:30:24;;;;;;;;;;;16.80;72.30;;;;;;4963384;28;96411;-40
2021/07/22 10:33:03;;;;;;;;;;;16.70;72.30;;;;;;4981139;28;95325;-41
2021/07/22 10:35:39;;;;;;;;;;;16.60;72.40;;;;;;4980368;28;95053;-40
2021/07/22 10:38:35;;;;;;;;;;;16.50;72.70;;;;;;4981866;28;95023;-40
2021/07/22 10:41:07;;;;;;;;;;;16.40;72.90;;;;;;4980820;28;95725;-41
2021/07/22 10:43:46;;;;;;;;;;;16.40;73.10;;;;;;4962601;28;97635;-41
2021/07/22 10:46:21;;;;;;;;;;;16.30;73.10;;;;;;4979813;28;95058;-41
2021/07/22 10:49:11;;;;;;;;;;;16.30;73.30;;;;;;4979093;28;95098;-41
2021/07/22 10:51:45;;;;;;;;;;;16.30;73.50;;;;;;4981340;28;96129;-41
2021/07/22 10:54:35;;;;;;;;;;;16.20;73.50;;;;;;4981425;28;95242;-41
2021/07/22 10:57:06;;;;;;;;;;;16.10;73.60;;;;;;4982032;28;95054;-48
2021/07/22 10:59:55;;;;;;;;;;;16.10;73.70;;;;;;4982215;28;95028;-48
2021/07/22 11:02:40;;;;;;;;;;;16.00;73.60;;;;;;4979135;28;95844;-48
2021/07/22 11:05:24;;;;;;;;;;;16.00;73.80;;;;;;4979032;28;95938;-48
2021/07/22 11:08:12;;;;;;;;;;;16.00;73.70;;;;;;4981251;28;95006;-48
2021/07/22 11:10:51;;;;;;;;;;;16.00;73.90;;;;;;4981432;28;95151;-48
2021/07/22 11:13:35;;;;;;;;;;;15.90;73.80;;;;;;4979748;28;96465;-47
2021/07/22 11:16:31;;;;;;;;;;;15.90;73.90;;;;;;4978361;28;94917;-46
2021/07/22 11:19:12;;;;;;;;;;;15.90;73.90;;;;;;4980726;28;95024;-47
2021/07/22 11:21:52;;;;;;;;;;;15.80;74.00;;;;;;4981073;28;95266;-47
2021/07/22 11:24:25;;;;;;;;;;;15.80;74.20;;;;;;4980229;28;95834;-47
2021/07/22 11:26:57;;;;;;;;;;;15.70;74.20;;;;;;4980264;28;95286;-47
2021/07/22 11:29:28;;;;;;;;;;;15.70;74.30;;;;;;4980626;28;94990;-48
2021/07/22 11:32:02;;;;;;;;;;;15.70;74.30;;;;;;4979486;28;95247;-48
2021/07/22 11:34:36;;;;;;;;;;;15.60;74.30;;;;;;4978201;28;96598;-48
2021/07/22 11:37:08;;;;;;;;;;;15.60;74.40;;;;;;4980245;28;95242;-48
2021/07/22 11:39:40;;;;;;;;;;;15.60;74.40;;;;;;4980397;28;94973;-47
2021/07/22 11:42:12;;;;;;;;;;;15.60;74.60;;;;;;4980540;28;95282;-48
2021/07/22 11:45:04;;;;;;;;;;;15.50;74.50;;;;;;4979730;28;96361;-48
2021/07/22 11:47:36;;;;;;;;;;;15.50;74.50;;;;;;4960713;28;95863;-47
2021/07/22 11:50:07;;;;;;;;;;;15.50;74.50;;;;;;4978987;28;95382;-48
2021/07/22 11:52:38;;;;;;;;;;;15.40;74.40;;;;;;4981685;28;95158;-47
2021/07/22 11:55:12;;;;;;;;;;;15.40;74.60;;;;;;4979242;28;96513;-47
2021/07/22 11:57:44;;;;;;;;;;;15.30;74.60;;;;;;4979165;28;95114;-48
2021/07/22 12:00:17;;;;;;;;;;;15.30;74.70;;;;;;4978824;28;95077;-48
2021/07/22 12:02:55;;;;;;;;;;;15.30;74.90;;;;;;4979406;28;95158;-47
2021/07/22 12:05:27;;;;;;;;;;;15.20;74.90;;;;;;4978664;28;96075;-48
2021/07/22 12:08:20;;;;;;;;;;;15.20;74.70;;;;;;4979922;28;95871;-48
2021/07/22 12:10:57;;;;;;;;;;;15.20;74.80;;;;;;4980284;28;94986;-47
2021/07/22 12:13:44;;;;;;;;;;;15.20;75.70;;;;;;4980391;28;95142;-48
2021/07/22 12:16:17;;;;;;;;;;;15.20;75.40;;;;;;4977801;28;95798;-48
2021/07/22 12:18:50;;;;;;;;;;;15.10;75.20;;;;;;4979172;28;95458;-48
2021/07/22 12:21:26;;;;;;;;;;;15.10;75.10;;;;;;4979825;28;94948;-47
2021/07/22 12:24:17;;;;;;;;;;;15.10;75.30;;;;;;4979912;28;95250;-47
2021/07/22 12:26:48;;;;;;;;;;;15.10;75.40;;;;;;4979068;28;96205;-47
2021/07/22 12:29:20;;;;;;;;;;;15.00;75.30;;;;;;4979467;28;95516;-47
2021/07/22 12:31:51;;;;;;;;;;;15.10;75.50;;;;;;4977938;28;95132;-47
2021/07/22 12:34:22;;;;;;;;;;;15.00;75.50;;;;;;4980079;28;95166;-47
2021/07/22 12:36:53;;;;;;;;;;;15.00;75.50;;;;;;4979449;28;95843;-46
2021/07/22 12:39:30;;;;;;;;;;;15.00;75.60;;;;;;4979318;28;95194;-46
2021/07/22 12:42:11;;;;;;;;;;;15.00;75.60;;;;;;4979836;28;95033;-47
2021/07/22 12:44:44;;;;;;;;;;;14.90;75.70;;;;;;4980033;28;95033;-46
2021/07/22 12:47:31;;;;;;;;;;;14.90;75.60;;;;;;4981914;28;95863;-46
2021/07/22 12:50:04;;;;;;;;;;;14.90;75.80;;;;;;4985382;28;95288;-47
2021/07/22 12:52:48;;;;;;;;;;;14.90;75.80;;;;;;4985245;28;95031;-47
2021/07/22 12:55:28;;;;;;;;;;;14.90;75.80;;;;;;4987027;28;95263;-46
2021/07/22 12:58:01;;;;;;;;;;;14.80;75.70;;;;;;4986224;28;96492;-46
2021/07/22 13:00:42;;;;;;;;;;;14.80;76.50;;;;;;4984386;28;95842;-47
2021/07/22 13:03:13;;;;;;;;;;;14.80;75.80;;;;;;4986057;28;94925;-48
2021/07/22 13:05:43;;;;;;;;;;;14.70;75.80;;;;;;4986987;28;95118;-48
2021/07/22 13:08:14;;;;;;;;;;;14.80;76.00;;;;;;4986206;28;95856;-48
2021/07/22 13:10:48;;;;;;;;;;;14.80;75.90;;;;;;4985654;28;95132;-46
2021/07/22 13:13:19;;;;;;;;;;;14.70;76.00;;;;;;4968250;28;95089;-48
2021/07/22 13:15:52;;;;;;;;;;;14.70;76.00;;;;;;4982377;28;95311;-47
2021/07/22 13:18:24;;;;;;;;;;;14.70;76.00;;;;;;4985514;28;96026;-46
2021/07/22 13:21:10;;;;;;;;;;;14.70;76.10;;;;;;4985572;28;95388;-47
2021/07/22 13:23:40;;;;;;;;;;;14.70;76.10;;;;;;4985896;28;94964;-47
2021/07/22 13:26:15;;;;;;;;;;;14.60;76.10;;;;;;4986240;28;95263;-47
2021/07/22 13:28:48;;;;;;;;;;;14.60;76.10;;;;;;4985450;28;95834;-47
2021/07/22 13:31:21;;;;;;;;;;;14.60;76.10;;;;;;4983478;28;95396;-47
2021/07/22 13:33:53;;;;;;;;;;;14.60;76.10;;;;;;4985893;28;95057;-46
2021/07/22 13:36:24;;;;;;;;;;;14.50;76.00;;;;;;4986102;28;95163;-47
2021/07/22 13:38:56;;;;;;;;;;;14.50;76.10;;;;;;4985253;28;96460;-47
2021/07/22 13:41:27;;;;;;;;;;;14.50;76.10;;;;;;4985175;28;95393;-47
2021/07/22 13:43:59;;;;;;;;;;;14.50;76.10;;;;;;4985454;28;95054;-47
2021/07/22 13:46:30;;;;;;;;;;;14.50;76.10;;;;;;4984788;28;95230;-48
2021/07/22 13:49:01;;;;;;;;;;;14.50;76.20;;;;;;4983662;28;95314;-47
2021/07/22 13:51:33;;;;;;;;;;;14.50;76.30;;;;;;4986332;28;95232;-47
2021/07/22 13:54:04;;;;;;;;;;;14.40;76.20;;;;;;4986381;28;94942;-47
2021/07/22 13:56:43;;;;;;;;;;;14.40;76.20;;;;;;4986593;28;95574;-48
2021/07/22 13:59:16;;;;;;;;;;;14.40;76.20;;;;;;4982426;28;96324;-47
2021/07/22 14:01:48;;;;;;;;;;;14.40;76.20;;;;;;4978042;28;96153;-47
2021/07/22 14:04:25;;;;;;;;;;;14.40;76.30;;;;;;4964208;28;95061;-47
2021/07/22 14:06:58;;;;;;;;;;;14.30;76.30;;;;;;4982604;28;94766;-48
2021/07/22 14:09:29;;;;;;;;;;;14.30;76.30;;;;;;4980872;28;95043;-47
2021/07/22 14:12:01;;;;;;;;;;;14.30;76.30;;;;;;4981307;28;94923;-48
2021/07/22 14:14:33;;;;;;;;;;;14.30;76.40;;;;;;4981031;28;95062;-48
2021/07/22 14:17:05;;;;;;;;;;;14.30;77.00;;;;;;4979647;28;95078;-48
2021/07/22 14:19:37;;;;;;;;;;;14.30;76.40;;;;;;4981488;28;95914;-48
2021/07/22 14:22:07;;;;;;;;;;;14.30;76.40;;;;;;4981154;28;95991;-47
2021/07/22 14:24:38;;;;;;;;;;;14.30;76.50;;;;;;4981998;28;95114;-48
2021/07/22 14:27:11;;;;;;;;;;;14.30;76.50;;;;;;4982100;28;94734;-48
2021/07/22 14:29:43;;;;;;;;;;;14.20;76.40;;;;;;4981024;28;97057;-48
2021/07/22 14:32:14;;;;;;;;;;;14.20;76.50;;;;;;4978845;28;95531;-48
2021/07/22 14:34:48;;;;;;;;;;;14.20;76.50;;;;;;4963731;28;95031;-48
2021/07/22 14:37:23;;;;;;;;;;;14.20;76.40;;;;;;4979454;28;95296;-48
2021/07/22 14:39:56;;;;;;;;;;;14.20;76.40;;;;;;4981104;28;95799;-40
2021/07/22 14:42:29;;;;;;;;;;;14.20;76.60;;;;;;4979816;28;95303;-48
2021/07/22 14:45:01;;;;;;;;;;;14.20;76.60;;;;;;4980681;28;95020;-47
2021/07/22 14:47:36;;;;;;;;;;;14.30;76.70;;;;;;4977320;28;95492;-42
2021/07/22 14:50:08;;;;;;;;;;;14.30;77.20;;;;;;4980677;28;95824;-42
2021/07/22 14:52:40;;;;;;;;;;;14.40;77.10;;;;;;4981785;28;95253;-42
2021/07/22 14:55:12;;;;;;;;;;;14.30;76.80;;;;;;4981660;28;95163;-42
2021/07/22 14:57:44;;;;;;;;;;;14.30;76.90;;;;;;4978869;28;95362;-42
2021/07/22 15:00:16;;;;;;;;;;;14.30;76.80;;;;;;4981165;28;95860;-42
2021/07/22 15:02:47;;;;;;;;;;;14.30;76.80;;;;;;4979485;28;94965;-42
2021/07/22 15:05:18;;;;;;;;;;;14.30;76.40;;;;;;4981077;28;94931;-40